KNGP/NGP METAR and TAF weather

Enter ICAO airport designator
Station Type Date Time Source
KNGP METAR 2019/12/07 04:56 UTC NOAA

KNGP 070456Z AUTO 03013KT 10SM CLR 18/12 A3023 RMK AO2 SLP237 T01830122 $


Station Type Date Time Source
KNGP Decoded METAR 2019/12/07 04:56 UTC NOAA

CORPUS CHRISTI NAVAL AIR STN, TX, United States (KNGP) 27-41N 097-17W
Dec 06, 2019 - 11:56 PM EST / 2019.12.07 0456 UTC
Wind: from the NNE (030 degrees) at 15 MPH (13 KT):0
Visibility: 10 mile(s):0
Sky conditions: clear
Temperature: 64.9 F (18.3 C)
Dew Point: 54.0 F (12.2 C)
Relative Humidity: 67%
Pressure (altimeter): 30.23 in. Hg (1023 hPa)
ob: KNGP 070456Z AUTO 03013KT 10SM CLR 18/12 A3023 RMK AO2 SLP237 T01830122
cycle: 5

Station Type Date Time Source
KNGP TAF 2019/12/06 23:58 UTC NOAA

TAF KNGP 0623/0723 01008KT 9999 FEW250 QNH3011INS
FM070400 02012G17KT 9999 SKC QNH3018INS
FM071200 02010G15KT 9999 FEW020 FEW250 QNH3023INS
FM071500 01009KT 9999 SCT024 SCT250 QNH3025INS
FM071800 05007KT 9999 FEW025 BKN250 QNH3019INS
FM072100 09007KT 9999 SCT020 SCT250 QNH3016INS AUTOMATED SENSOR METWATCH 0701 TIL 0912 T11/0712Z T20/0721Z FN00003

Example: see airport list